createdAt,value
2018-05-25T00:04:00.756Z,16.17
2018-05-25T00:09:06.120Z,15.60
2018-05-25T00:14:10.561Z,16.03
2018-05-25T00:19:15.159Z,15.43
2018-05-25T00:24:19.020Z,16.07
2018-05-25T00:29:23.461Z,15.97
2018-05-25T00:34:26.947Z,15.13
2018-05-25T00:39:31.391Z,15.40
2018-05-25T00:44:35.894Z,17.70
2018-05-25T00:49:39.746Z,15.30
2018-05-25T00:55:01.421Z,16.43
2018-05-25T01:00:05.280Z,16.00
2018-05-25T01:05:09.143Z,19.97
2018-05-25T01:10:13.006Z,15.50
2018-05-25T01:15:17.243Z,17.40
2018-05-25T01:20:20.739Z,21.90
2018-05-25T01:25:24.970Z,18.57
2018-05-25T01:30:28.063Z,18.43
2018-05-25T01:35:32.510Z,19.60
2018-05-25T01:40:35.604Z,19.47
2018-05-25T01:45:39.470Z,18.83
2018-05-25T01:50:42.962Z,19.07
2018-05-25T01:55:48.565Z,19.23
2018-05-25T02:00:53.009Z,18.97
2018-05-25T02:05:56.094Z,19.73
2018-05-25T02:10:59.954Z,19.60
2018-05-25T02:16:03.451Z,17.73
2018-05-25T02:21:07.679Z,18.57
2018-05-25T02:26:12.136Z,20.30
2018-05-25T02:31:16.367Z,21.47
2018-05-25T02:36:20.234Z,20.40
2018-05-25T02:41:23.742Z,20.07
2018-05-25T02:46:27.615Z,23.27
2018-05-25T02:51:31.103Z,21.10
2018-05-25T02:56:34.199Z,22.20
2018-05-25T03:01:37.298Z,20.63
2018-05-25T03:06:41.175Z,22.13
2018-05-25T03:11:45.624Z,22.47
2018-05-25T03:16:49.120Z,23.03
2018-05-25T03:21:53.349Z,22.43
2018-05-25T03:26:56.853Z,21.90
2018-05-25T03:32:01.449Z,23.27
2018-05-25T03:37:05.921Z,24.07
2018-05-25T03:42:10.370Z,23.00
2018-05-25T03:47:14.225Z,23.83
2018-05-25T03:52:18.664Z,25.90
2018-05-25T03:57:23.109Z,26.50
2018-05-25T04:02:27.564Z,26.80
2018-05-25T04:07:31.446Z,27.10
2018-05-25T04:12:34.543Z,27.07
2018-05-25T04:17:38.467Z,30.30
2018-05-25T04:22:42.331Z,29.00
2018-05-25T04:27:46.769Z,29.50
2018-05-25T04:32:51.366Z,28.03
2018-05-25T04:37:54.468Z,26.33
2018-05-25T04:42:57.582Z,28.20
2018-05-25T04:48:00.760Z,28.23
2018-05-25T04:53:03.937Z,26.43
2018-05-25T04:58:08.180Z,26.87
2018-05-25T05:03:12.638Z,27.67
2018-05-25T05:08:16.166Z,27.50
2018-05-25T05:13:20.778Z,27.73
2018-05-25T05:18:25.012Z,28.47
2018-05-25T05:23:29.479Z,25.60
2018-05-25T05:28:34.063Z,27.10
2018-05-25T05:33:38.728Z,27.67
2018-05-25T05:38:43.114Z,27.53
2018-05-25T05:43:47.569Z,26.10
2018-05-25T05:48:50.662Z,27.17
2018-05-25T05:53:53.759Z,28.43
2018-05-25T05:58:58.207Z,25.83
2018-05-25T06:04:01.687Z,27.43
2018-05-25T06:09:06.129Z,26.83
2018-05-25T06:14:10.565Z,25.70
2018-05-25T06:19:15.013Z,24.57
2018-05-25T06:24:19.248Z,23.40
2018-05-25T06:29:22.350Z,21.57
2018-05-25T06:34:26.797Z,21.07
2018-05-25T06:39:29.900Z,20.73
2018-05-25T06:44:33.775Z,19.23
2018-05-25T06:49:38.383Z,19.47
2018-05-25T06:54:41.478Z,18.47
2018-05-25T06:59:44.962Z,19.00
2018-05-25T07:04:48.822Z,18.43
2018-05-25T07:09:52.327Z,18.43
2018-05-25T07:14:55.831Z,18.27
2018-05-25T07:19:58.913Z,17.50
2018-05-25T07:25:02.774Z,18.67
2018-05-25T07:30:07.003Z,18.97
2018-05-25T07:35:10.859Z,18.30
2018-05-25T07:40:15.298Z,15.80
2018-05-25T07:45:18.397Z,15.30
2018-05-25T07:50:22.260Z,14.20
2018-05-25T07:55:25.346Z,14.70
2018-05-25T08:00:28.851Z,15.17
2018-05-25T08:05:33.089Z,15.80
2018-05-25T08:10:36.187Z,15.03
2018-05-25T08:15:39.282Z,14.73
2018-05-25T08:20:43.732Z,15.33
2018-05-25T08:25:49.121Z,13.93
2018-05-25T08:30:52.229Z,14.27
2018-05-25T08:35:56.680Z,14.00
2018-05-25T08:41:01.283Z,13.60
2018-05-25T08:46:04.780Z,14.77
2018-05-25T08:51:09.026Z,14.67
2018-05-25T08:56:12.133Z,14.27
2018-05-25T09:01:16.058Z,12.63
2018-05-25T09:06:20.427Z,13.77
2018-05-25T09:11:23.526Z,12.67
2018-05-25T09:16:27.026Z,12.63
2018-05-25T09:21:31.630Z,10.75
2018-05-25T09:26:34.727Z,11.17
2018-05-25T09:31:39.171Z,11.50
2018-05-25T09:36:42.659Z,10.63
2018-05-25T09:41:45.759Z,10.30
2018-05-25T09:46:49.618Z,11.40
2018-05-25T09:51:54.078Z,10.80
2018-05-25T09:57:01.946Z,10.30
2018-05-25T10:02:05.022Z,9.70
2018-05-25T10:07:08.512Z,8.67
2018-05-25T10:12:12.945Z,9.37
2018-05-25T10:17:17.390Z,9.17
2018-05-25T10:22:20.869Z,9.93
2018-05-25T10:27:23.975Z,9.90
2018-05-25T10:32:27.068Z,9.47
2018-05-25T10:37:30.152Z,8.40
2018-05-25T10:42:34.374Z,8.73
2018-05-25T10:47:37.463Z,8.67
2018-05-25T10:52:40.556Z,8.63
2018-05-25T10:57:43.629Z,8.03
2018-05-25T11:02:48.070Z,8.27
2018-05-25T11:07:52.658Z,8.27
2018-05-25T11:12:56.884Z,7.37
2018-05-25T11:17:59.976Z,7.90
2018-05-25T11:23:03.453Z,6.83
2018-05-25T11:28:07.298Z,6.87
2018-05-25T11:33:11.894Z,7.20
2018-05-25T11:38:14.978Z,7.43
2018-05-25T11:43:19.198Z,7.40
2018-05-25T11:48:23.281Z,7.47
2018-05-25T11:53:26.757Z,7.23
2018-05-25T11:58:30.612Z,7.23
2018-05-25T12:03:34.095Z,7.97
2018-05-25T12:08:37.179Z,7.63
2018-05-25T12:13:41.025Z,7.43
2018-05-25T12:18:44.111Z,6.40
2018-05-25T12:23:48.339Z,6.80
2018-05-25T12:28:52.188Z,5.73
2018-05-25T12:33:56.043Z,6.77
2018-05-25T12:38:59.524Z,6.50
2018-05-25T12:44:03.371Z,5.80
2018-05-25T12:49:06.849Z,6.50
2018-05-25T12:54:10.330Z,6.03
2018-05-25T12:59:13.418Z,5.93
2018-05-25T13:04:16.503Z,6.43
2018-05-25T13:09:19.586Z,5.70
2018-05-25T13:14:23.443Z,5.40
2018-05-25T13:19:26.524Z,5.70
2018-05-25T13:24:30.374Z,5.53
2018-05-25T13:29:34.235Z,5.43
2018-05-25T13:34:37.715Z,5.00
2018-05-25T13:39:41.562Z,5.33
2018-05-25T13:44:44.654Z,4.70
2018-05-25T13:49:48.136Z,4.60
2018-05-25T13:54:51.619Z,5.00
2018-05-25T13:59:55.107Z,4.90
2018-05-25T14:04:58.966Z,4.53
2018-05-25T14:10:03.405Z,4.63
2018-05-25T14:15:07.255Z,4.43
2018-05-25T14:20:15.462Z,4.20
2018-05-25T14:25:20.015Z,4.30
2018-05-25T14:30:24.251Z,4.60
2018-05-25T14:35:28.440Z,4.17
2018-05-25T14:40:31.922Z,4.67
2018-05-25T14:45:36.375Z,3.93
2018-05-25T14:50:39.453Z,4.17
2018-05-25T14:55:42.936Z,4.33
2018-05-25T15:00:46.411Z,4.50
2018-05-25T15:05:51.014Z,4.00
2018-05-25T15:10:55.243Z,4.20
2018-05-25T15:15:59.835Z,4.57
2018-05-25T15:21:03.545Z,4.33
2018-05-25T15:26:06.660Z,3.80
2018-05-25T15:31:11.107Z,4.93
2018-05-25T15:36:15.543Z,4.80
2018-05-25T15:41:19.022Z,4.97
2018-05-25T15:46:22.917Z,4.47
2018-05-25T15:51:26.370Z,4.50
2018-05-25T15:56:29.504Z,4.10
2018-05-25T16:01:32.963Z,4.30
2018-05-25T16:06:36.049Z,4.27
2018-05-25T16:11:40.276Z,4.43
2018-05-25T16:16:43.373Z,4.03
2018-05-25T16:21:47.597Z,4.00
2018-05-25T16:26:50.692Z,4.23
2018-05-25T16:31:53.786Z,4.57
2018-05-25T16:36:58.234Z,4.20
2018-05-25T16:42:02.848Z,4.10
2018-05-25T16:47:05.942Z,4.53
2018-05-25T16:52:10.166Z,4.10
2018-05-25T16:57:13.263Z,4.20
2018-05-25T17:02:17.690Z,3.93
2018-05-25T17:07:21.538Z,4.10
2018-05-25T17:12:25.377Z,4.10
2018-05-25T17:17:29.611Z,4.20
2018-05-25T17:22:32.934Z,3.87
2018-05-25T17:27:37.438Z,4.10
2018-05-25T17:32:40.531Z,4.70
2018-05-25T17:37:44.383Z,3.93
2018-05-25T17:42:48.820Z,3.77
2018-05-25T17:47:51.898Z,4.97
2018-05-25T17:52:56.330Z,5.40
2018-05-25T17:57:59.413Z,5.30
2018-05-25T18:03:03.638Z,5.07
2018-05-25T18:08:08.070Z,5.10
2018-05-25T18:13:11.929Z,4.93
2018-05-25T18:18:16.525Z,5.20
2018-05-25T18:23:19.605Z,5.03
2018-05-25T18:28:23.826Z,5.17
2018-05-25T18:33:26.920Z,5.20
2018-05-25T18:38:31.512Z,5.17
2018-05-25T18:43:34.598Z,5.03
2018-05-25T18:48:39.043Z,5.03
2018-05-25T18:53:43.635Z,5.10
2018-05-25T18:58:48.089Z,5.47
2018-05-25T19:03:51.576Z,6.40
2018-05-25T19:08:54.657Z,5.07
2018-05-25T19:13:58.519Z,6.20
2018-05-25T19:19:02.003Z,5.67
2018-05-25T19:24:06.602Z,5.90
2018-05-25T19:29:09.694Z,5.50
2018-05-25T19:34:13.180Z,5.73
2018-05-25T19:39:16.281Z,5.73
2018-05-25T19:44:20.716Z,5.73
2018-05-25T19:49:24.935Z,5.90
2018-05-25T19:54:29.383Z,6.47
2018-05-25T19:59:33.231Z,6.47
2018-05-25T20:04:36.710Z,6.37
2018-05-25T20:09:39.806Z,6.57
2018-05-25T20:14:43.655Z,6.87
2018-05-25T20:19:46.741Z,7.40
2018-05-25T20:24:50.976Z,7.47
2018-05-25T20:29:54.454Z,7.07
2018-05-25T20:34:57.944Z,6.80
2018-05-25T20:40:01.031Z,6.67
2018-05-25T20:45:04.121Z,7.47
2018-05-25T20:50:07.977Z,7.10
2018-05-25T20:55:11.845Z,6.90
2018-05-25T21:00:15.692Z,7.17
2018-05-25T21:05:18.802Z,7.20
2018-05-25T21:10:21.894Z,6.67
2018-05-25T21:15:26.333Z,6.90
2018-05-25T21:20:30.777Z,7.87
2018-05-25T21:25:33.870Z,7.23
2018-05-25T21:30:38.467Z,7.60
2018-05-25T21:35:41.554Z,7.37
2018-05-25T21:40:45.409Z,7.60
2018-05-25T21:45:49.998Z,8.20
2018-05-25T21:50:54.228Z,8.07
2018-05-25T21:55:58.670Z,8.17
2018-05-25T22:01:01.759Z,8.00
2018-05-25T22:06:06.827Z,7.70
2018-05-25T22:11:09.915Z,7.20
2018-05-25T22:16:13.391Z,7.43
2018-05-25T22:21:16.485Z,7.47
2018-05-25T22:26:19.615Z,7.80
2018-05-25T22:31:24.168Z,7.63
2018-05-25T22:36:27.249Z,7.27
2018-05-25T22:41:30.333Z,7.43
2018-05-25T22:46:52.688Z,7.30
2018-05-25T22:52:09.029Z,7.55
2018-05-25T22:57:12.111Z,7.70
2018-05-25T23:02:15.593Z,7.30
2018-05-25T23:07:18.699Z,7.43
2018-05-25T23:12:23.950Z,7.28
2018-05-25T23:17:28.187Z,7.13
2018-05-25T23:22:31.667Z,6.90
2018-05-25T23:27:36.105Z,7.17
2018-05-25T23:32:40.693Z,7.07
2018-05-25T23:37:44.547Z,6.97
2018-05-25T23:42:47.643Z,7.37
2018-05-25T23:47:52.234Z,7.50
2018-05-25T23:52:55.718Z,7.90
2018-05-25T23:58:00.162Z,8.33
